sensor_id;sensor_type;location;lat;lon;timestamp;P1;durP1;ratioP1;P2;durP2;ratioP2
57718;SDS011;43561;50.090;18.522;2023-05-07T00:01:58;37.70;;;16.33;;
57718;SDS011;43561;50.090;18.522;2023-05-07T00:12:00;28.13;;;19.30;;
57718;SDS011;43561;50.090;18.522;2023-05-07T00:22:02;24.20;;;15.10;;
57718;SDS011;43561;50.090;18.522;2023-05-07T00:32:04;29.85;;;19.25;;
57718;SDS011;43561;50.090;18.522;2023-05-07T00:42:06;32.90;;;18.23;;
57718;SDS011;43561;50.090;18.522;2023-05-07T00:52:16;26.98;;;18.23;;
57718;SDS011;43561;50.090;18.522;2023-05-07T01:02:18;31.17;;;17.98;;
57718;SDS011;43561;50.090;18.522;2023-05-07T01:12:21;25.10;;;14.05;;
57718;SDS011;43561;50.090;18.522;2023-05-07T01:22:28;24.40;;;16.42;;
57718;SDS011;43561;50.090;18.522;2023-05-07T01:32:50;24.20;;;13.27;;
57718;SDS011;43561;50.090;18.522;2023-05-07T01:43:13;20.00;;;13.20;;
57718;SDS011;43561;50.090;18.522;2023-05-07T01:53:16;20.85;;;12.15;;
57718;SDS011;43561;50.090;18.522;2023-05-07T02:03:18;20.90;;;11.43;;
57718;SDS011;43561;50.090;18.522;2023-05-07T02:13:31;19.05;;;10.68;;
57718;SDS011;43561;50.090;18.522;2023-05-07T02:23:34;19.27;;;13.32;;
57718;SDS011;43561;50.090;18.522;2023-05-07T02:33:36;15.50;;;11.77;;
57718;SDS011;43561;50.090;18.522;2023-05-07T02:43:41;18.38;;;12.10;;
57718;SDS011;43561;50.090;18.522;2023-05-07T02:53:44;15.90;;;10.02;;
57718;SDS011;43561;50.090;18.522;2023-05-07T03:03:46;13.85;;;9.05;;
57718;SDS011;43561;50.090;18.522;2023-05-07T03:13:48;14.05;;;10.07;;
57718;SDS011;43561;50.090;18.522;2023-05-07T03:23:52;15.13;;;8.82;;
57718;SDS011;43561;50.090;18.522;2023-05-07T03:33:55;15.73;;;10.93;;
57718;SDS011;43561;50.090;18.522;2023-05-07T03:43:58;28.38;;;13.55;;
57718;SDS011;43561;50.090;18.522;2023-05-07T03:54:01;20.40;;;11.82;;
57718;SDS011;43561;50.090;18.522;2023-05-07T04:04:05;14.80;;;9.40;;
57718;SDS011;43561;50.090;18.522;2023-05-07T04:14:09;15.02;;;11.25;;
57718;SDS011;43561;50.090;18.522;2023-05-07T04:24:11;14.60;;;8.60;;
57718;SDS011;43561;50.090;18.522;2023-05-07T04:34:13;14.98;;;9.88;;
57718;SDS011;43561;50.090;18.522;2023-05-07T04:44:16;14.48;;;8.77;;
57718;SDS011;43561;50.090;18.522;2023-05-07T04:54:19;12.32;;;7.20;;
57718;SDS011;43561;50.090;18.522;2023-05-07T05:04:21;11.55;;;7.35;;
57718;SDS011;43561;50.090;18.522;2023-05-07T05:14:23;16.35;;;7.57;;
57718;SDS011;43561;50.090;18.522;2023-05-07T05:24:26;10.63;;;7.65;;
57718;SDS011;43561;50.090;18.522;2023-05-07T05:34:28;9.15;;;5.35;;
57718;SDS011;43561;50.090;18.522;2023-05-07T05:44:31;10.52;;;6.13;;
57718;SDS011;43561;50.090;18.522;2023-05-07T05:54:35;10.70;;;6.40;;
57718;SDS011;43561;50.090;18.522;2023-05-07T06:04:36;12.65;;;8.50;;
57718;SDS011;43561;50.090;18.522;2023-05-07T06:14:39;14.23;;;7.90;;
57718;SDS011;43561;50.090;18.522;2023-05-07T06:24:44;20.73;;;8.88;;
57718;SDS011;43561;50.090;18.522;2023-05-07T06:34:46;15.77;;;9.63;;
57718;SDS011;43561;50.090;18.522;2023-05-07T06:44:49;16.35;;;10.38;;
57718;SDS011;43561;50.090;18.522;2023-05-07T06:54:52;22.13;;;11.73;;
57718;SDS011;43561;50.090;18.522;2023-05-07T07:04:56;12.85;;;9.00;;
57718;SDS011;43561;50.090;18.522;2023-05-07T07:14:59;14.77;;;8.77;;
57718;SDS011;43561;50.090;18.522;2023-05-07T07:25:01;15.15;;;9.95;;
57718;SDS011;43561;50.090;18.522;2023-05-07T07:35:04;22.63;;;13.93;;
57718;SDS011;43561;50.090;18.522;2023-05-07T07:45:06;22.58;;;12.25;;
57718;SDS011;43561;50.090;18.522;2023-05-07T07:55:13;18.40;;;8.43;;
57718;SDS011;43561;50.090;18.522;2023-05-07T08:05:16;9.23;;;6.55;;
57718;SDS011;43561;50.090;18.522;2023-05-07T08:15:18;8.57;;;7.72;;
57718;SDS011;43561;50.090;18.522;2023-05-07T08:25:22;17.00;;;7.70;;
57718;SDS011;43561;50.090;18.522;2023-05-07T08:35:24;7.25;;;5.65;;
57718;SDS011;43561;50.090;18.522;2023-05-07T08:45:27;8.57;;;5.82;;
57718;SDS011;43561;50.090;18.522;2023-05-07T08:55:31;7.05;;;4.88;;
57718;SDS011;43561;50.090;18.522;2023-05-07T09:05:33;9.02;;;8.00;;
57718;SDS011;43561;50.090;18.522;2023-05-07T09:15:35;13.75;;;10.05;;
57718;SDS011;43561;50.090;18.522;2023-05-07T09:25:38;13.23;;;9.68;;
57718;SDS011;43561;50.090;18.522;2023-05-07T09:35:52;10.80;;;7.75;;
57718;SDS011;43561;50.090;18.522;2023-05-07T09:45:56;14.45;;;7.97;;
57718;SDS011;43561;50.090;18.522;2023-05-07T09:56:01;13.27;;;10.65;;
57718;SDS011;43561;50.090;18.522;2023-05-07T10:06:06;17.75;;;7.03;;
57718;SDS011;43561;50.090;18.522;2023-05-07T10:16:10;15.55;;;12.93;;
57718;SDS011;43561;50.090;18.522;2023-05-07T10:26:18;32.35;;;20.02;;
57718;SDS011;43561;50.090;18.522;2023-05-07T10:36:23;13.43;;;8.52;;
57718;SDS011;43561;50.090;18.522;2023-05-07T10:46:27;9.48;;;8.57;;
57718;SDS011;43561;50.090;18.522;2023-05-07T10:56:50;8.63;;;7.13;;
57718;SDS011;43561;50.090;18.522;2023-05-07T11:17:11;11.60;;;9.55;;
57718;SDS011;43561;50.090;18.522;2023-05-07T11:27:22;10.55;;;8.45;;
57718;SDS011;43561;50.090;18.522;2023-05-07T11:37:26;10.73;;;6.78;;
57718;SDS011;43561;50.090;18.522;2023-05-07T11:47:35;8.13;;;6.80;;
57718;SDS011;43561;50.090;18.522;2023-05-07T11:57:39;8.45;;;7.63;;
57718;SDS011;43561;50.090;18.522;2023-05-07T12:07:41;16.13;;;8.35;;
57718;SDS011;43561;50.090;18.522;2023-05-07T12:17:43;9.63;;;6.72;;
57718;SDS011;43561;50.090;18.522;2023-05-07T12:27:45;14.98;;;8.82;;
57718;SDS011;43561;50.090;18.522;2023-05-07T12:38:00;10.60;;;8.52;;
57718;SDS011;43561;50.090;18.522;2023-05-07T12:48:02;8.45;;;7.63;;
57718;SDS011;43561;50.090;18.522;2023-05-07T12:58:04;9.40;;;8.57;;
57718;SDS011;43561;50.090;18.522;2023-05-07T13:08:06;13.30;;;9.77;;
57718;SDS011;43561;50.090;18.522;2023-05-07T13:18:07;14.25;;;11.93;;
57718;SDS011;43561;50.090;18.522;2023-05-07T13:28:10;11.25;;;9.90;;
57718;SDS011;43561;50.090;18.522;2023-05-07T13:38:12;16.63;;;10.70;;
57718;SDS011;43561;50.090;18.522;2023-05-07T13:48:14;9.35;;;8.10;;
57718;SDS011;43561;50.090;18.522;2023-05-07T13:58:16;12.25;;;10.60;;
57718;SDS011;43561;50.090;18.522;2023-05-07T14:08:18;19.73;;;13.05;;
57718;SDS011;43561;50.090;18.522;2023-05-07T14:18:19;15.23;;;11.70;;
57718;SDS011;43561;50.090;18.522;2023-05-07T14:28:22;8.80;;;7.28;;
57718;SDS011;43561;50.090;18.522;2023-05-07T14:38:24;7.40;;;5.80;;
57718;SDS011;43561;50.090;18.522;2023-05-07T14:48:25;10.82;;;8.85;;
57718;SDS011;43561;50.090;18.522;2023-05-07T14:58:27;9.20;;;8.10;;
57718;SDS011;43561;50.090;18.522;2023-05-07T15:08:29;10.70;;;7.90;;
57718;SDS011;43561;50.090;18.522;2023-05-07T15:18:31;11.77;;;6.93;;
57718;SDS011;43561;50.090;18.522;2023-05-07T15:28:33;7.40;;;6.60;;
57718;SDS011;43561;50.090;18.522;2023-05-07T15:38:35;15.35;;;6.85;;
57718;SDS011;43561;50.090;18.522;2023-05-07T15:48:37;14.00;;;9.73;;
57718;SDS011;43561;50.090;18.522;2023-05-07T15:58:39;13.45;;;10.55;;
57718;SDS011;43561;50.090;18.522;2023-05-07T16:08:42;17.77;;;10.48;;
57718;SDS011;43561;50.090;18.522;2023-05-07T16:18:43;12.77;;;9.35;;
57718;SDS011;43561;50.090;18.522;2023-05-07T16:28:45;13.00;;;8.38;;
57718;SDS011;43561;50.090;18.522;2023-05-07T16:38:47;10.82;;;6.15;;
57718;SDS011;43561;50.090;18.522;2023-05-07T16:48:49;11.38;;;8.60;;
57718;SDS011;43561;50.090;18.522;2023-05-07T16:58:51;15.98;;;10.05;;
57718;SDS011;43561;50.090;18.522;2023-05-07T17:08:53;13.75;;;8.90;;
57718;SDS011;43561;50.090;18.522;2023-05-07T17:18:55;16.27;;;10.63;;
57718;SDS011;43561;50.090;18.522;2023-05-07T17:28:57;13.98;;;8.35;;
57718;SDS011;43561;50.090;18.522;2023-05-07T17:38:59;21.50;;;6.68;;
57718;SDS011;43561;50.090;18.522;2023-05-07T17:49:01;16.25;;;10.00;;
57718;SDS011;43561;50.090;18.522;2023-05-07T17:59:04;18.75;;;9.13;;
57718;SDS011;43561;50.090;18.522;2023-05-07T18:09:06;10.00;;;8.68;;
57718;SDS011;43561;50.090;18.522;2023-05-07T18:19:08;10.32;;;7.68;;
57718;SDS011;43561;50.090;18.522;2023-05-07T18:29:10;12.00;;;7.55;;
57718;SDS011;43561;50.090;18.522;2023-05-07T18:39:12;8.00;;;6.68;;
57718;SDS011;43561;50.090;18.522;2023-05-07T18:49:14;11.82;;;7.45;;
57718;SDS011;43561;50.090;18.522;2023-05-07T18:59:16;13.40;;;7.70;;
57718;SDS011;43561;50.090;18.522;2023-05-07T19:09:18;9.60;;;7.07;;
57718;SDS011;43561;50.090;18.522;2023-05-07T19:19:20;21.25;;;9.60;;
57718;SDS011;43561;50.090;18.522;2023-05-07T19:29:22;16.40;;;8.60;;
57718;SDS011;43561;50.090;18.522;2023-05-07T19:39:25;9.45;;;6.32;;
57718;SDS011;43561;50.090;18.522;2023-05-07T19:49:27;6.55;;;5.25;;
57718;SDS011;43561;50.090;18.522;2023-05-07T19:59:29;7.93;;;7.10;;
57718;SDS011;43561;50.090;18.522;2023-05-07T20:09:31;8.20;;;5.30;;
57718;SDS011;43561;50.090;18.522;2023-05-07T20:19:33;14.93;;;7.82;;
57718;SDS011;43561;50.090;18.522;2023-05-07T20:29:35;12.02;;;5.07;;
57718;SDS011;43561;50.090;18.522;2023-05-07T20:39:37;8.55;;;5.00;;
57718;SDS011;43561;50.090;18.522;2023-05-07T20:49:39;9.18;;;7.07;;
57718;SDS011;43561;50.090;18.522;2023-05-07T20:59:41;10.07;;;5.70;;
57718;SDS011;43561;50.090;18.522;2023-05-07T21:09:43;9.25;;;5.53;;
57718;SDS011;43561;50.090;18.522;2023-05-07T21:19:45;9.20;;;6.22;;
57718;SDS011;43561;50.090;18.522;2023-05-07T21:29:47;9.93;;;6.25;;
57718;SDS011;43561;50.090;18.522;2023-05-07T21:39:49;4.70;;;4.15;;
57718;SDS011;43561;50.090;18.522;2023-05-07T21:49:51;8.32;;;6.57;;
57718;SDS011;43561;50.090;18.522;2023-05-07T21:59:53;10.20;;;6.22;;
57718;SDS011;43561;50.090;18.522;2023-05-07T22:09:55;10.98;;;6.35;;
57718;SDS011;43561;50.090;18.522;2023-05-07T22:19:57;7.57;;;6.70;;
57718;SDS011;43561;50.090;18.522;2023-05-07T22:29:59;8.95;;;5.25;;
57718;SDS011;43561;50.090;18.522;2023-05-07T22:40:01;5.70;;;5.05;;
57718;SDS011;43561;50.090;18.522;2023-05-07T22:50:03;6.43;;;4.47;;
57718;SDS011;43561;50.090;18.522;2023-05-07T23:00:06;9.05;;;4.35;;
57718;SDS011;43561;50.090;18.522;2023-05-07T23:10:08;5.78;;;3.75;;
57718;SDS011;43561;50.090;18.522;2023-05-07T23:20:11;10.55;;;5.18;;
57718;SDS011;43561;50.090;18.522;2023-05-07T23:30:14;9.18;;;5.47;;
57718;SDS011;43561;50.090;18.522;2023-05-07T23:40:16;9.13;;;6.65;;
57718;SDS011;43561;50.090;18.522;2023-05-07T23:50:18;7.90;;;5.22;;
